Terminal Aerodrome Forecast
Issued by NWS

Home | Current Version | Previous Version | Text Only | Print | Product List | Glossary Off
Versions: 1 2 3 4 5 6 7 8 9 10 11 12 13 14 15 16 17 18 19

000
FTUS43 KTOP 170300 AAA
TAFFOE
TAF AMD
KFOE 170337Z 1704/1724 34007KT P6SM BKN015
     FM170600 35007KT P6SM SCT015 SCT200
     FM171500 09004KT P6SM BKN150=

USA.gov is the U.S. government's official web portal to all federal, state and local government web resources and services.